Time;durP1;ratioP1;P1;durP2;ratioP2;P2;SDS_P1;SDS_P2;PMS_P1;PMS_P2;Temp;Humidity;BMP_temperature;BMP_pressure;BME280_temperature;BME280_humidity;BME280_pressure;Samples;Min_cycle;Max_cycle;Signal;HPM_P1;HPM_P2
2022/04/22 00:00:17;;;;;;;11.40;8.97;;;;;;;14.92;46.59;99973.28;5069090;28;20048;-73
2022/04/22 00:02:43;;;;;;;13.55;9.40;;;;;;;14.83;46.38;99971.69;5068525;28;20349;-74
2022/04/22 00:05:11;;;;;;;13.77;9.05;;;;;;;14.86;46.43;99969.50;5052208;28;20037;-73
2022/04/22 00:07:36;;;;;;;15.18;9.57;;;;;;;14.79;46.39;99957.81;5067846;28;20185;-73
2022/04/22 00:10:05;;;;;;;12.85;9.32;;;;;;;14.94;46.31;99960.59;5048759;28;20147;-74
2022/04/22 00:12:30;;;;;;;14.75;9.75;;;;;;;14.91;46.31;99968.97;5065155;28;20586;-75
2022/04/22 00:14:56;;;;;;;13.65;9.85;;;;;;;14.85;46.36;99953.63;5065318;28;20055;-74
2022/04/22 00:17:22;;;;;;;12.75;9.32;;;;;;;14.94;46.34;99965.94;5048498;28;20044;-75
2022/04/22 00:19:50;;;;;;;12.52;9.30;;;;;;;15.19;45.72;99976.25;5065720;28;20547;-75
2022/04/22 00:22:17;;;;;;;14.00;9.55;;;;;;;15.06;45.97;99976.03;5052018;28;20412;-75
2022/04/22 00:24:42;;;;;;;16.25;9.70;;;;;;;15.07;45.84;99968.84;5054954;28;20492;-73
2022/04/22 00:27:08;;;;;;;12.68;9.50;;;;;;;15.16;45.71;99978.47;5072851;28;20100;-73
2022/04/22 00:29:34;;;;;;;15.68;10.18;;;;;;;15.17;45.77;99970.28;5072626;28;20036;-73
2022/04/22 00:32:00;;;;;;;15.30;10.38;;;;;;;15.11;45.89;99973.66;5088781;28;20102;-73
2022/04/22 00:34:25;;;;;;;15.13;9.85;;;;;;;15.06;45.91;99973.38;5054870;28;20048;-73
2022/04/22 00:36:54;;;;;;;16.90;10.30;;;;;;;15.01;45.77;99959.69;5038989;28;20366;-73
2022/04/22 00:39:27;;;;;;;14.25;10.50;;;;;;;14.97;45.79;99950.38;5072152;28;20122;-73
2022/04/22 00:41:53;;;;;;;15.68;10.00;;;;;;;15.13;45.75;99976.16;5071807;28;20048;-74
2022/04/22 00:44:18;;;;;;;14.98;10.07;;;;;;;15.09;45.78;99970.34;5054936;28;20048;-74
2022/04/22 00:46:44;;;;;;;14.73;10.60;;;;;;;15.12;45.84;99975.34;5039163;28;20093;-75
2022/04/22 00:49:10;;;;;;;16.40;10.73;;;;;;;15.10;45.69;99971.16;5089611;28;20041;-74
2022/04/22 00:51:36;;;;;;;14.38;10.90;;;;;;;15.13;45.78;99966.28;5054855;28;20523;-75
2022/04/22 00:54:03;;;;;;;15.65;10.68;;;;;;;15.09;45.98;99951.63;5038164;28;20094;-74
2022/04/22 00:56:29;;;;;;;18.00;10.30;;;;;;;15.05;46.15;99954.81;5072031;28;20047;-73
2022/04/22 00:58:57;;;;;;;15.88;11.32;;;;;;;15.10;46.32;99950.59;5054854;28;20044;-73
2022/04/22 01:01:24;;;;;;;16.42;10.90;;;;;;;14.89;46.34;99930.84;5055010;28;20051;-73
2022/04/22 01:12:07;;;;;;;23.23;14.80;;;;;;;15.18;46.71;99941.66;5057132;28;20048;-75
2022/04/22 01:14:33;;;;;;;26.23;15.40;;;;;;;15.04;46.75;99942.44;5021464;28;20048;-76
2022/04/22 01:17:00;;;;;;;30.88;16.67;;;;;;;14.94;46.86;99944.53;5071621;28;20086;-77
2022/04/22 01:19:28;;;;;;;35.13;17.95;;;;;;;15.14;46.67;99943.84;5054580;28;20072;-75
2022/04/22 01:21:53;;;;;;;34.53;16.80;;;;;;;15.02;46.68;99936.47;5055223;28;20048;-76
2022/04/22 01:24:20;;;;;;;34.20;17.50;;;;;;;15.11;46.83;99930.84;5071410;28;20044;-76
2022/04/22 01:26:49;;;;;;;32.83;17.38;;;;;;;15.24;46.88;99936.44;5054625;28;20393;-79
2022/04/22 01:29:14;;;;;;;31.45;17.05;;;;;;;15.03;46.78;99930.09;5054333;28;20098;-77
2022/04/22 01:31:43;;;;;;;32.72;16.05;;;;;;;15.21;46.56;99942.13;5037680;28;20052;-76
2022/04/22 01:34:08;;;;;;;27.25;17.17;;;;;;;15.04;46.41;99931.75;5038115;28;20067;-76
2022/04/22 01:36:35;;;;;;;26.67;16.02;;;;;;;15.07;46.72;99934.91;5054221;28;20071;-77
2022/04/22 01:39:01;;;;;;;27.35;15.75;;;;;;;15.06;46.38;99932.41;5054528;28;20059;-77
2022/04/22 01:41:27;;;;;;;27.63;16.50;;;;;;;15.09;46.24;99940.06;5039970;28;20045;-77
2022/04/22 01:43:54;;;;;;;27.77;17.13;;;;;;;15.15;46.60;99939.34;5056001;28;20056;-77
2022/04/22 01:46:20;;;;;;;31.05;17.70;;;;;;;15.05;46.41;99936.09;5055138;28;20044;-77
2022/04/22 01:48:48;;;;;;;28.55;16.35;;;;;;;15.11;46.46;99940.72;5056440;28;20040;-80
2022/04/22 01:51:13;;;;;;;30.00;17.45;;;;;;;15.13;46.57;99936.00;5056157;28;20198;-77
2022/04/22 01:53:42;;;;;;;32.47;17.33;;;;;;;15.16;46.33;99936.50;5039374;28;20046;-75
2022/04/22 01:56:09;;;;;;;34.63;18.73;;;;;;;15.10;46.15;99925.66;5039466;28;20040;-76
2022/04/22 01:58:35;;;;;;;35.65;18.52;;;;;;;15.11;46.54;99938.06;5055154;28;20051;-76
2022/04/22 02:01:03;;;;;;;36.42;19.15;;;;;;;15.12;46.25;99942.38;5038653;28;20044;-76
2022/04/22 02:03:29;;;;;;;34.83;18.27;;;;;;;15.09;46.42;99938.22;5072898;28;20081;-76
2022/04/22 02:05:55;;;;;;;28.80;17.35;;;;;;;15.13;46.12;99938.69;5054530;28;20044;-77
2022/04/22 02:08:25;;;;;;;36.92;18.42;;;;;;;15.13;46.07;99946.72;5070167;28;20127;-74
2022/04/22 02:10:51;;;;;;;33.13;18.65;;;;;;;15.10;46.19;99950.59;5071179;28;20419;-74
2022/04/22 02:13:17;;;;;;;33.40;18.27;;;;;;;15.06;46.29;99949.28;5020443;28;20151;-74
2022/04/22 02:15:42;;;;;;;31.88;18.13;;;;;;;15.07;46.26;99955.47;5053268;28;20462;-74
2022/04/22 02:18:08;;;;;;;34.85;17.20;;;;;;;15.09;46.25;99951.63;5053222;28;20036;-75
2022/04/22 02:20:34;;;;;;;24.92;16.08;;;;;;;15.09;46.10;99954.28;5054096;28;20377;-78
2022/04/22 02:23:00;;;;;;;25.77;15.70;;;;;;;15.01;46.19;99945.47;5037484;28;20138;-75
2022/04/22 02:25:25;;;;;;;27.48;16.67;;;;;;;15.01;46.25;99946.31;5069981;28;20045;-75
2022/04/22 02:30:37;;;;;;;27.42;15.85;;;;;;;15.03;46.31;99938.94;5056186;28;20153;-75
2022/04/22 02:33:06;;;;;;;26.10;15.85;;;;;;;15.10;46.19;99952.41;5070310;28;20041;-75
2022/04/22 02:35:32;;;;;;;23.58;15.55;;;;;;;15.09;46.28;99942.75;5036868;28;20087;-75
2022/04/22 02:37:58;;;;;;;29.13;16.67;;;;;;;15.02;46.41;99953.31;5053110;28;20040;-75
2022/04/22 02:45:52;;;;;;;31.45;15.48;;;;;;;15.06;46.28;99954.66;5055256;28;20040;-75
2022/04/22 02:48:18;;;;;;;27.70;14.82;;;;;;;15.10;46.15;99955.09;5036304;28;20456;-73
2022/04/22 02:50:44;;;;;;;22.17;13.43;;;;;;;15.05;46.21;99946.81;5019564;28;20044;-74
2022/04/22 02:53:12;;;;;;;21.20;12.88;;;;;;;15.24;45.80;99940.94;5069090;28;20131;-73
2022/04/22 02:55:41;;;;;;;23.73;12.80;;;;;;;15.26;45.78;99941.59;5052587;28;20044;-74
2022/04/22 02:58:07;;;;;;;21.63;12.77;;;;;;;15.10;46.07;99944.41;5019263;28;20049;-74
2022/04/22 03:00:33;;;;;;;19.17;12.23;;;;;;;15.04;45.93;99945.97;5053539;28;20396;-74
2022/04/22 03:02:59;;;;;;;18.58;11.70;;;;;;;15.01;46.30;99945.47;5052912;28;20500;-74
2022/04/22 03:05:24;;;;;;;19.30;11.52;;;;;;;14.98;46.37;99949.34;5035849;28;20385;-74
2022/04/22 03:07:50;;;;;;;19.15;11.57;;;;;;;14.95;46.05;99944.34;5068764;28;20217;-74
2022/04/22 03:10:17;;;;;;;20.88;11.52;;;;;;;14.88;46.21;99946.06;5033863;28;20052;-74
2022/04/22 03:12:43;;;;;;;18.90;11.55;;;;;;;14.90;46.45;99949.41;5052248;28;20052;-74
2022/04/22 03:15:09;;;;;;;21.95;12.25;;;;;;;14.91;46.48;99953.72;5052331;28;20074;-74
2022/04/22 03:17:34;;;;;;;17.40;11.10;;;;;;;14.89;46.52;99945.06;5069230;28;20504;-75
2022/04/22 03:20:00;;;;;;;21.65;11.75;;;;;;;14.90;46.46;99953.91;5053381;28;20052;-74
2022/04/22 03:22:26;;;;;;;21.70;11.05;;;;;;;14.98;46.36;99953.84;5051824;28;20051;-72
2022/04/22 03:24:52;;;;;;;17.30;10.80;;;;;;;14.96;46.38;99953.22;5052509;28;20076;-72
2022/04/22 03:27:18;;;;;;;19.55;9.93;;;;;;;14.96;46.23;99959.38;5068799;28;20123;-71
2022/04/22 03:29:44;;;;;;;17.48;9.75;;;;;;;14.93;46.73;99953.56;5035339;28;20134;-72
2022/04/22 03:32:11;;;;;;;16.30;9.80;;;;;;;14.96;46.38;99955.91;5051822;28;20044;-72
2022/04/22 03:34:37;;;;;;;15.50;9.85;;;;;;;15.03;46.16;99952.31;5068595;28;20102;-74
2022/04/22 03:37:03;;;;;;;20.70;10.52;;;;;;;15.01;46.36;99950.81;5085982;28;20044;-73
2022/04/22 03:39:29;;;;;;;15.43;9.32;;;;;;;15.01;46.46;99961.53;5052963;28;20040;-73
2022/04/22 03:41:54;;;;;;;16.77;9.65;;;;;;;15.03;46.35;99963.03;5051910;28;20044;-76
2022/04/22 03:44:20;;;;;;;21.67;10.57;;;;;;;15.03;46.22;99956.84;5085695;28;20055;-73
2022/04/22 03:46:46;;;;;;;15.60;9.73;;;;;;;15.15;45.92;99961.59;5035411;28;20135;-74
2022/04/22 03:49:12;;;;;;;19.83;10.10;;;;;;;15.20;45.66;99950.34;5068527;28;20119;-74
2022/04/22 03:51:37;;;;;;;15.05;9.50;;;;;;;15.32;45.62;99958.78;5018855;28;20040;-74
2022/04/22 03:54:03;;;;;;;24.70;10.07;;;;;;;15.28;45.57;99952.97;5035195;28;20040;-76
2022/04/22 03:59:13;;;;;;;23.83;10.57;;;;;;;15.28;45.79;99958.31;5058767;28;20412;-73
2022/04/22 04:01:39;;;;;;;16.63;9.52;;;;;;;15.33;45.78;99961.25;5039321;28;20527;-74
2022/04/22 04:04:04;;;;;;;16.42;10.20;;;;;;;15.34;45.83;99962.94;5055577;28;20045;-74
2022/04/22 04:06:30;;;;;;;17.67;10.57;;;;;;;15.28;45.93;99958.31;5022169;28;20105;-74
2022/04/22 04:17:14;;;;;;;18.73;10.52;;;;;;;15.33;45.80;99969.28;5075601;28;20134;-73
2022/04/22 04:25:09;;;;;;;18.30;11.80;;;;;;;15.44;45.39;99958.19;5077765;28;20047;-74
2022/04/22 04:27:36;;;;;;;25.40;13.98;;;;;;;15.52;45.20;99958.13;5057301;28;20542;-74
2022/04/22 04:30:04;;;;;;;24.85;16.10;;;;;;;15.66;44.98;99961.84;5058428;28;20130;-80
2022/04/22 04:32:30;;;;;;;29.20;16.92;;;;;;;15.61;45.00;99959.69;5075447;28;20060;-78
2022/04/22 04:34:56;;;;;;;24.58;16.40;;;;;;;15.42;45.39;99954.88;5093349;28;20044;-66
2022/04/22 04:37:24;;;;;;;22.58;15.02;;;;;;;15.57;45.37;99958.41;5093179;28;20522;-74
2022/04/22 04:39:49;;;;;;;32.50;18.58;;;;;;;15.33;45.90;99939.84;5065912;28;20043;-72
2022/04/22 04:42:16;;;;;;;29.90;16.52;;;;;;;15.27;45.99;99944.09;5052173;28;20893;-76
2022/04/22 04:44:42;;;;;;;24.10;14.68;;;;;;;15.30;46.17;99955.47;5056295;28;20036;-77
2022/04/22 04:47:10;;;;;;;22.55;12.43;;;;;;;15.30;46.21;99952.78;5053512;28;20454;-72
2022/04/22 04:49:36;;;;;;;28.48;12.05;;;;;;;15.27;45.99;99960.16;5079621;28;20067;-71
2022/04/22 04:52:02;;;;;;;19.55;9.95;;;;;;;15.38;45.92;99961.59;5089868;28;20040;-73
2022/04/22 04:54:28;;;;;;;23.45;10.45;;;;;;;15.35;45.78;99956.56;5090401;28;20075;-72
2022/04/22 04:56:54;;;;;;;20.80;10.10;;;;;;;15.35;45.51;99953.91;5074703;28;20036;-73
2022/04/22 04:59:20;;;;;;;21.73;9.52;;;;;;;15.34;45.42;99941.53;5073552;28;20055;-72
2022/04/22 05:01:45;;;;;;;20.33;9.40;;;;;;;15.56;45.03;99959.41;5090113;28;20601;-73
2022/04/22 05:04:11;;;;;;;18.73;9.38;;;;;;;15.63;44.88;99967.56;5056744;28;20514;-73
2022/04/22 05:06:37;;;;;;;15.75;8.73;;;;;;;15.68;44.69;99960.66;5054763;28;20036;-71
2022/04/22 05:09:03;;;;;;;17.42;8.52;;;;;;;15.71;44.44;99954.94;5054178;28;20079;-71
2022/04/22 05:11:29;;;;;;;20.42;7.40;;;;;;;15.83;43.96;99947.25;5055880;28;20472;-70
2022/04/22 05:13:54;;;;;;;13.05;7.30;;;;;;;16.12;43.34;99961.50;5089426;28;20567;-73
2022/04/22 05:16:20;;;;;;;11.90;7.15;;;;;;;16.31;42.87;99968.94;5038294;28;20196;-72
2022/04/22 05:18:46;;;;;;;15.10;7.45;;;;;;;16.49;42.12;99960.56;5056738;28;20079;-72
2022/04/22 05:21:11;;;;;;;12.20;6.90;;;;;;;16.61;41.64;99962.56;5079972;28;20412;-73
2022/04/22 05:23:37;;;;;;;18.55;7.68;;;;;;;16.75;41.68;99974.28;5054640;28;20122;-77
2022/04/22 05:26:04;;;;;;;16.38;7.63;;;;;;;16.85;40.99;99967.59;5049355;28;20481;-70
2022/04/22 05:28:30;;;;;;;19.33;8.65;;;;;;;16.93;41.35;99965.81;5038167;28;20130;-72
2022/04/22 05:33:40;;;;;;;16.90;8.23;;;;;;;16.93;40.85;99941.66;5058724;28;20043;-73
2022/04/22 05:36:06;;;;;;;14.68;8.45;;;;;;;17.07;40.67;99964.94;5056537;28;20065;-73
2022/04/22 05:38:32;;;;;;;12.77;8.18;;;;;;;17.12;40.36;99963.31;5072568;28;20475;-71
2022/04/22 05:40:58;;;;;;;17.50;8.13;;;;;;;17.16;40.09;99961.09;5072880;28;20044;-71
2022/04/22 05:43:24;;;;;;;12.77;8.07;;;;;;;17.08;40.31;99964.75;5039401;28;20051;-71
2022/04/22 05:45:50;;;;;;;14.18;7.63;;;;;;;16.96;40.05;99938.59;5089441;28;20047;-71
2022/04/22 05:48:17;;;;;;;16.80;8.25;;;;;;;17.23;40.07;99968.19;5072393;28;20125;-71
2022/04/22 05:50:44;;;;;;;11.18;7.38;;;;;;;17.41;39.81;99971.22;5055579;28;20051;-71
2022/04/22 05:53:11;;;;;;;14.70;7.07;;;;;;;17.32;39.79;99968.88;5072355;28;20109;-70
2022/04/22 05:55:37;;;;;;;11.75;6.82;;;;;;;17.36;39.42;99957.53;5038014;28;20047;-71
2022/04/22 05:58:04;;;;;;;12.35;7.90;;;;;;;17.52;39.13;99970.75;5053257;28;20052;-71
2022/04/22 06:00:31;;;;;;;12.93;7.07;;;;;;;17.73;38.80;99969.84;5086401;28;20411;-71
2022/04/22 06:02:58;;;;;;;12.98;6.78;;;;;;;17.95;38.38;99971.47;5052226;28;20657;-72
2022/04/22 06:05:24;;;;;;;13.60;6.85;;;;;;;18.11;37.96;99955.03;5036619;28;20036;-71
2022/04/22 06:10:31;;;;;;;10.65;6.85;;;;;;;18.39;37.33;99970.09;5070367;28;20095;-71
2022/04/22 06:10:38;;;;;;;15.32;7.28;;;;;;;18.40;36.65;99930.59;5057422;28;20082;-71
2022/04/22 06:13:05;;;;;;;14.40;6.05;;;;;;;18.79;36.22;99975.63;5038499;28;20062;-71
2022/04/22 06:15:31;;;;;;;8.68;4.68;;;;;;;18.83;35.58;99972.34;5089760;28;20044;-71
2022/04/22 06:17:58;;;;;;;11.48;4.85;;;;;;;18.88;35.69;99975.22;5055547;28;20044;-72
2022/04/22 06:20:28;;;;;;;9.20;5.25;;;;;;;18.79;35.55;99964.88;5056093;28;20044;-71
2022/04/22 06:22:54;;;;;;;9.70;5.57;;;;;;;19.01;35.02;99985.19;5088966;28;20392;-71
2022/04/22 06:25:24;;;;;;;11.45;5.78;;;;;;;18.88;35.18;99967.16;5056930;28;20117;-71
2022/04/22 06:27:50;;;;;;;13.73;6.50;;;;;;;18.89;35.19;99963.44;5055086;28;20488;-71
2022/04/22 06:30:18;;;;;;;11.45;7.05;;;;;;;19.15;35.14;99981.50;5055110;28;20050;-72
2022/04/22 06:32:46;;;;;;;12.00;6.63;;;;;;;18.93;34.96;99959.31;5072805;28;20048;-71
2022/04/22 06:35:14;;;;;;;16.95;6.50;;;;;;;18.93;35.22;99958.50;5072257;28;20072;-71
2022/04/22 06:37:42;;;;;;;9.32;6.70;;;;;;;19.02;35.37;99976.91;5055317;28;20048;-71
2022/04/22 06:45:46;;;;;;;10.00;5.10;;;;;;;19.28;34.46;99966.22;5088460;28;20047;-71
2022/04/22 06:48:33;;;;;;;9.38;5.60;;;;;;;19.37;34.30;99951.50;5039047;28;20055;-71
2022/04/22 06:51:00;;;;;;;12.45;5.40;;;;;;;19.65;34.14;99962.91;5072556;28;20568;-71
2022/04/22 06:53:26;;;;;;;11.27;4.32;;;;;;;19.89;33.31;99975.75;5055744;28;20126;-71
2022/04/22 06:55:53;;;;;;;9.82;4.43;;;;;;;19.95;33.26;99974.91;5055321;28;20050;-71
2022/04/22 06:58:20;;;;;;;8.85;4.88;;;;;;;19.67;33.36;99917.72;5088787;28;20514;-71
2022/04/22 07:00:48;;;;;;;10.55;4.32;;;;;;;19.95;33.08;99966.00;5055514;28;20043;-71
2022/04/22 07:03:15;;;;;;;6.63;4.03;;;;;;;19.80;33.29;99968.91;5071856;28;20043;-71
2022/04/22 07:05:44;;;;;;;10.68;4.43;;;;;;;19.88;33.22;99973.28;5088437;28;20036;-71
2022/04/22 07:08:13;;;;;;;9.38;3.63;;;;;;;19.80;33.15;99974.28;5071736;28;20131;-71
2022/04/22 07:10:42;;;;;;;9.15;3.80;;;;;;;19.80;33.27;99973.50;5071707;28;20040;-71
2022/04/22 07:13:19;;;;;;;6.15;3.50;;;;;;;19.82;33.05;99972.22;5086955;28;20055;-72
2022/04/22 07:15:48;;;;;;;8.57;3.97;;;;;;;19.80;33.40;99971.59;5054932;28;20050;-72
2022/04/22 07:18:17;;;;;;;7.65;3.35;;;;;;;19.60;33.45;99975.38;5055115;28;20048;-71
2022/04/22 07:20:43;;;;;;;8.43;3.72;;;;;;;19.55;33.61;99973.28;5071541;28;20043;-72
2022/04/22 07:23:10;;;;;;;8.80;4.18;;;;;;;19.53;33.63;99959.19;5054600;28;20043;-70
2022/04/22 07:25:36;;;;;;;10.38;4.15;;;;;;;19.42;33.95;99970.59;5055022;28;20040;-74
2022/04/22 07:28:04;;;;;;;8.15;3.88;;;;;;;19.49;33.77;99974.13;5088285;28;20048;-75
2022/04/22 07:30:30;;;;;;;13.05;4.20;;;;;;;19.48;33.76;99966.25;5075807;28;20062;-72
2022/04/22 07:32:59;;;;;;;11.00;4.20;;;;;;;19.39;33.89;99962.09;5043519;28;20071;-74
2022/04/22 07:35:26;;;;;;;10.15;3.95;;;;;;;19.39;33.89;99972.88;5076039;28;20062;-74
2022/04/22 07:37:53;;;;;;;9.57;3.78;;;;;;;19.36;33.96;99960.63;5058670;28;20050;-75
2022/04/22 07:40:20;;;;;;;9.52;3.50;;;;;;;19.25;34.47;99966.59;5075575;28;20448;-74
2022/04/22 07:48:21;;;;;;;14.05;3.50;;;;;;;18.87;34.64;99968.19;5078831;28;20152;-74
2022/04/22 07:50:49;;;;;;;14.55;3.13;;;;;;;19.17;34.24;99974.91;5059926;28;20032;-74
2022/04/22 07:53:15;;;;;;;8.98;3.17;;;;;;;18.98;34.34;99951.44;5075594;28;20102;-74
2022/04/22 07:55:42;;;;;;;9.13;3.50;;;;;;;18.87;34.36;99929.66;5058024;28;20047;-73
2022/04/22 07:58:10;;;;;;;8.50;3.65;;;;;;;19.13;34.20;99957.47;5041223;28;20139;-75
2022/04/22 08:00:45;;;;;;;7.82;3.38;;;;;;;19.25;33.99;99953.13;5058469;28;20396;-74
2022/04/22 08:03:12;;;;;;;6.07;3.70;;;;;;;19.23;34.35;99951.69;5074981;28;20399;-74
2022/04/22 08:05:39;;;;;;;8.40;3.60;;;;;;;19.17;34.33;99941.75;5058442;28;20071;-74
2022/04/22 08:08:07;;;;;;;6.20;3.50;;;;;;;19.21;34.06;99938.44;5075243;28;20090;-74
2022/04/22 08:10:34;;;;;;;8.00;3.63;;;;;;;19.31;33.86;99948.84;5076567;28;20054;-75
2022/04/22 08:13:01;;;;;;;9.38;3.42;;;;;;;19.43;33.74;99941.78;5057916;28;20113;-72
2022/04/22 08:15:27;;;;;;;6.13;4.03;;;;;;;19.50;33.78;99956.06;5042367;28;20071;-71
2022/04/22 08:17:53;;;;;;;8.38;3.70;;;;;;;19.37;33.75;99938.03;5059571;28;20071;-75
2022/04/22 08:20:18;;;;;;;11.30;4.00;;;;;;;19.41;33.47;99935.78;5076341;28;20101;-74
2022/04/22 08:22:44;;;;;;;11.63;3.80;;;;;;;19.56;33.47;99956.09;5058757;28;20078;-75
2022/04/22 08:25:11;;;;;;;6.68;3.65;;;;;;;19.68;33.41;99954.41;5074823;28;20043;-75
2022/04/22 08:27:38;;;;;;;7.38;3.45;;;;;;;19.59;33.19;99947.59;5091909;28;20040;-75
2022/04/22 08:30:05;;;;;;;8.88;3.75;;;;;;;19.67;33.00;99946.53;5058418;28;20499;-72
2022/04/22 08:32:31;;;;;;;5.28;3.45;;;;;;;19.46;33.11;99923.34;5074557;28;20510;-72
2022/04/22 08:34:57;;;;;;;7.95;3.58;;;;;;;19.71;32.96;99940.50;5058278;28;20044;-72
2022/04/22 08:37:22;;;;;;;8.10;3.65;;;;;;;19.85;32.73;99950.25;5058356;28;20158;-75
2022/04/22 08:39:50;;;;;;;14.55;3.95;;;;;;;19.84;32.57;99934.28;5057829;28;20087;-70
2022/04/22 08:42:16;;;;;;;10.75;4.35;;;;;;;20.05;32.47;99920.53;5092356;28;20067;-73
2022/04/22 08:44:42;;;;;;;6.63;4.45;;;;;;;20.10;32.26;99940.44;5074099;28;20079;-72
2022/04/22 08:49:58;;;;;;;11.13;4.32;;;;;;;20.18;32.28;99943.97;5090507;28;20130;-74
2022/04/22 08:52:28;;;;;;;10.52;4.00;;;;;;;20.43;31.88;99934.13;5074305;28;20464;-73
2022/04/22 08:54:55;;;;;;;11.90;3.58;;;;;;;20.31;32.18;99933.16;5073381;28;20062;-73
2022/04/22 08:57:21;;;;;;;10.70;3.85;;;;;;;20.35;31.78;99928.97;5040574;28;20497;-75
2022/04/22 08:59:47;;;;;;;8.55;3.25;;;;;;;20.26;31.77;99922.16;5090576;28;20159;-75
2022/04/22 09:02:19;;;;;;;7.35;3.33;;;;;;;20.54;31.73;99930.78;5073827;28;20178;-73
2022/04/22 09:04:46;;;;;;;13.70;3.83;;;;;;;20.49;31.50;99919.78;5073793;28;20496;-74
2022/04/22 09:07:18;;;;;;;14.25;3.60;;;;;;;20.64;31.68;99920.31;5058883;28;20175;-74
2022/04/22 09:09:49;;;;;;;8.43;3.55;;;;;;;20.73;31.66;99924.44;5074334;28;20050;-73
2022/04/22 09:12:19;;;;;;;7.18;3.97;;;;;;;20.96;31.04;99922.03;5073265;28;20063;-73
2022/04/22 09:14:52;;;;;;;6.85;3.63;;;;;;;21.12;30.73;99892.66;5090351;28;20146;-74
2022/04/22 09:17:32;;;;;;;9.02;3.25;;;;;;;21.31;30.18;99877.31;5040836;28;20051;-72
2022/04/22 09:20:00;;;;;;;10.85;3.80;;;;;;;21.16;29.94;99866.00;5079705;28;20016;-74
2022/04/22 09:22:34;;;;;;;11.07;3.40;;;;;;;21.30;30.27;99886.47;5073973;28;20051;-74
2022/04/22 09:25:00;;;;;;;8.43;3.33;;;;;;;21.18;30.08;99877.41;5074052;28;20044;-74
2022/04/22 09:27:33;;;;;;;13.73;3.60;;;;;;;21.37;30.20;99888.06;5091135;28;20089;-75
2022/04/22 09:30:00;;;;;;;11.18;3.72;;;;;;;21.09;30.53;99871.47;5039596;28;20093;-74
2022/04/22 09:32:30;;;;;;;12.27;3.95;;;;;;;21.34;30.36;99882.28;5039771;28;20040;-74
2022/04/22 09:35:07;;;;;;;14.02;3.67;;;;;;;21.21;30.22;99880.50;5073185;28;20503;-73
2022/04/22 09:43:47;;;;;;;11.40;3.33;;;;;;;21.16;29.92;99847.09;5073833;28;20051;-74
2022/04/22 09:46:22;;;;;;;11.73;5.45;;;;;;;21.29;29.92;99857.78;5041598;28;20043;-75
2022/04/22 09:48:48;;;;;;;13.98;4.63;;;;;;;21.05;30.43;99856.75;5089696;28;20042;-74
2022/04/22 09:51:22;;;;;;;14.40;4.55;;;;;;;21.14;30.15;99863.50;5055823;28;20388;-74
2022/04/22 09:53:58;;;;;;;10.30;4.28;;;;;;;21.09;30.58;99849.03;5055920;28;20048;-77
2022/04/22 09:56:25;;;;;;;7.45;3.70;;;;;;;20.95;30.45;99859.13;5056994;28;20051;-75
2022/04/22 09:58:51;;;;;;;10.40;4.40;;;;;;;20.91;30.40;99852.44;5040113;28;20039;-76
2022/04/22 10:01:17;;;;;;;14.02;4.32;;;;;;;20.77;30.60;99841.97;5055973;28;20051;-75
2022/04/22 10:03:43;;;;;;;11.95;4.25;;;;;;;20.92;30.89;99861.38;5039896;28;20488;-71
2022/04/22 10:06:09;;;;;;;12.98;4.40;;;;;;;20.86;30.56;99837.97;5045678;28;20137;-73
2022/04/22 10:08:39;;;;;;;15.10;4.40;;;;;;;21.07;30.54;99854.66;5055662;28;20086;-72
2022/04/22 10:11:08;;;;;;;8.50;4.17;;;;;;;21.24;30.06;99849.53;5055948;28;20590;-72
2022/04/22 10:13:42;;;;;;;13.43;4.20;;;;;;;21.35;29.84;99855.03;5088261;28;20086;-73
2022/04/22 10:16:11;;;;;;;16.15;4.93;;;;;;;21.41;29.40;99845.22;5039190;28;20055;-74
2022/04/22 10:18:42;;;;;;;10.63;4.43;;;;;;;21.39;29.36;99845.44;5072343;28;20047;-74
2022/04/22 10:21:08;;;;;;;;;;;;;;;21.67;28.93;99859.28;5072883;28;20043;-74
2022/04/22 10:23:35;;;;;;;12.43;4.43;;;;;;;21.52;29.63;99852.59;5056664;28;20002;-73
2022/04/22 10:26:01;;;;;;;10.90;4.10;;;;;;;21.32;29.37;99839.28;5072902;28;20067;-73
2022/04/22 10:28:32;;;;;;;14.35;3.92;;;;;;;21.45;29.32;99841.84;5072661;28;20131;-73
2022/04/22 10:31:01;;;;;;;11.10;4.15;;;;;;;21.35;29.29;99844.22;5055161;28;20044;-72
2022/04/22 10:33:28;;;;;;;5.68;4.03;;;;;;;21.40;29.43;99851.66;5055493;28;20044;-74
2022/04/22 10:35:59;;;;;;;13.73;3.83;;;;;;;21.25;29.56;99829.56;5089627;28;20251;-74
2022/04/22 10:41:58;;;;;;;5.90;3.88;;;;;;;21.16;29.69;99845.22;5079120;28;20044;-73
2022/04/22 10:47:13;;;;;;;10.85;4.22;;;;;;;20.75;30.42;99831.41;5058206;28;20040;-72
2022/04/22 10:49:40;;;;;;;7.32;3.70;;;;;;;20.78;30.58;99843.63;5055023;28;20071;-74
2022/04/22 10:52:14;;;;;;;6.72;3.35;;;;;;;20.56;30.13;99840.44;5054478;28;20093;-74
2022/04/22 10:54:52;;;;;;;7.10;3.53;;;;;;;20.53;30.86;99848.97;5038585;28;20048;-73
2022/04/22 10:57:29;;;;;;;7.07;3.30;;;;;;;20.23;30.81;99804.75;5071149;28;20460;-73
2022/04/22 11:00:11;;;;;;;11.60;3.97;;;;;;;20.35;31.23;99839.94;5071904;28;20139;-73
2022/04/22 11:02:40;;;;;;;;;;;;;;;20.14;31.47;99845.66;5055937;28;20056;-73
2022/04/22 11:05:18;;;;;;;17.52;4.25;;;;;;;19.81;32.27;99840.34;5072307;28;19967;-73
2022/04/22 11:07:53;;;;;;;10.20;3.83;;;;;;;19.67;32.08;99814.47;5087608;28;20059;-73
2022/04/22 11:10:23;;;;;;;7.85;3.47;;;;;;;19.71;32.47;99831.91;5054123;28;20048;-73
2022/04/22 11:12:53;;;;;;;10.85;4.07;;;;;;;19.80;32.42;99836.03;5037129;28;20119;-73
2022/04/22 11:15:46;;;;;;;9.73;4.43;;;;;;;19.72;32.58;99839.78;5088742;27;20124;-73
2022/04/22 11:18:14;;;;;;;11.13;4.13;;;;;;;19.10;33.39;99785.56;5055396;28;20139;-73
2022/04/22 11:20:51;;;;;;;8.63;4.20;;;;;;;19.29;33.54;99824.31;5089382;28;20075;-74
2022/04/22 11:23:17;;;;;;;11.65;3.90;;;;;;;19.03;33.82;99825.16;5056686;28;20082;-73
2022/04/22 11:25:46;;;;;;;8.50;4.00;;;;;;;18.93;34.02;99805.88;5039116;28;20039;-74
2022/04/22 11:28:13;;;;;;;10.57;4.00;;;;;;;18.84;34.48;99811.66;5055492;28;20094;-74
2022/04/22 11:30:40;;;;;;;6.07;4.20;;;;;;;18.68;34.29;99777.09;5055339;28;20067;-73
2022/04/22 11:33:07;;;;;;;7.32;4.00;;;;;;;19.23;33.77;99819.72;5072014;28;20070;-73
2022/04/22 11:35:34;;;;;;;7.53;4.63;;;;;;;19.51;33.22;99796.09;5074448;28;20047;-74
2022/04/22 11:38:04;;;;;;;8.68;3.42;;;;;;;20.39;32.10;99798.84;5052071;28;20041;-74
2022/04/22 11:40:37;;;;;;;9.00;3.92;;;;;;;21.04;30.76;99814.59;5052439;28;20051;-73
2022/04/22 11:43:08;;;;;;;7.13;3.80;;;;;;;21.39;30.10;99815.69;5053699;28;20085;-73
2022/04/22 11:45:38;;;;;;;7.25;4.00;;;;;;;21.57;29.69;99807.59;5018722;28;20073;-74
2022/04/22 11:48:11;;;;;;;11.02;3.83;;;;;;;21.93;29.30;99809.50;5051267;28;20047;-76
2022/04/22 11:50:38;;;;;;;7.85;3.72;;;;;;;22.01;29.09;99798.41;5018301;28;20106;-74
2022/04/22 11:53:17;;;;;;;6.93;3.90;;;;;;;22.31;28.70;99801.94;5017853;28;20072;-73
2022/04/22 11:55:44;;;;;;;8.77;4.15;;;;;;;22.44;28.79;99796.34;5034474;28;20063;-74
2022/04/22 11:58:12;;;;;;;12.98;4.25;;;;;;;22.58;28.11;99792.41;5035054;28;20089;-74
2022/04/22 12:06:16;;;;;;;8.82;4.20;;;;;;;22.60;27.85;99787.56;5037699;28;20048;-75
2022/04/22 12:08:53;;;;;;;7.20;4.25;;;;;;;22.88;27.34;99784.25;5034574;28;20512;-74
2022/04/22 12:11:19;;;;;;;6.70;3.72;;;;;;;22.52;27.68;99768.97;5033702;28;20504;-74
2022/04/22 12:13:47;;;;;;;7.10;4.18;;;;;;;22.42;28.03;99763.25;5032666;28;20109;-73
2022/04/22 12:16:21;;;;;;;9.52;3.83;;;;;;;22.32;28.14;99765.72;5019207;28;20451;-73
2022/04/22 12:18:49;;;;;;;8.23;4.00;;;;;;;21.95;28.94;99774.13;5030581;28;20139;-73
2022/04/22 12:21:16;;;;;;;12.80;4.15;;;;;;;21.73;29.10;99767.53;5032260;28;20051;-74
2022/04/22 12:23:52;;;;;;;7.90;4.30;;;;;;;21.60;29.15;99769.31;5015254;28;20420;-74
2022/04/22 12:26:25;;;;;;;11.15;3.92;;;;;;;21.43;29.26;99765.56;5021237;28;20055;-74
2022/04/22 12:29:10;;;;;;;6.10;3.90;;;;;;;21.40;29.53;99771.41;5033938;28;20053;-73
2022/04/22 12:31:45;;;;;;;9.02;4.30;;;;;;;21.27;29.78;99770.72;5017515;28;20404;-74
2022/04/22 12:34:24;;;;;;;10.02;4.00;;;;;;;21.11;29.56;99755.13;5017262;28;20052;-74